Pagrindinis puslapis
METAR-TAF:

METAR-TAF

Oro uostai :

Sigonella, Italija

platuma: 37-24N, ilguma: 014-55E, Aukštis: 22 m

Dabartinis oras

Ataskaita buvo paskelbta 57 minutes, ne 19:55 UTC
Temperatūra 8°C
Drėgmė 100%
Slėgis 1023 hPa
Matomumas 10 km arba daugiau
Išsisklaidę debesys ne aukštis 2000 ft

METAR: LICZ 181955Z /////KT 9999 SCT020 08/08 Q1023 RMK SCT VIS MIN 9999 WIND THR28 /////KT WIND THR10 /////KT A3023 BLU

Laikas: 21:52 (20:52 UTC)

Prognozė

Ataskaita buvo paskelbta 3 valandos ir 52 minutes, ne 17:00 UTC
Prognozė galioja nuo 18 metu 18 UTC su 19 metu 18 UTC
Vėjas 7 kt iš Vakarų
Matomumas 10 km arba daugiau
Išsisklaidę debesys ne aukštis 2500 ft
Laikinai
nuo 19 metu 01 UTC su 19 metu 05 UTC
Matomumas: 4000 m
rūkana

TAF: LICZ 181700Z 1818/1918 26007KT 9999 SCT025 TEMPO 1901/1905 4000 BR

Orai ataskaitas ir orų prognozės (METAR, TAF).

turimą stotys yra geltonos ir raudonos taškus žemėlapyje.

Perkelti pele per norėdami pamatyti stoties vardą.

Tada spustelėkite, norėdami matyti oro stebėjimo ir prognozės.

Norėdami pakeisti žemėlapį: spustelėkite ant žalios mygtukų su juodo kryžiaus žemyn,; žalią mygtuką su brūkšneliu, jei norite nutolinti; arba žalių rodyklių gretimoms žemėlapius.


METAR-TAF: